Airfield :
LOGIN :

Register | Disclaimer

   EN    FR    IT 

 










Legend :    VFR   Marginal VFR   IFR   Intensive IFR   Very Intensive IFR
Visi :
Ceiling :
>= 8 km
>= 3000ft
5 to 8 km
1000 to 3000 ft
1500m to 5 km
500 to 1000 ft
800 to 1500m
200 to 500 ft
< 800m
< 200 ft
Symbols :   Thunderstorms  Fog  Heavy snow  Heavy precipitations  Wind > 20 kt
SIGMETs :     Misc.  Thunderstorms  Icing  Turbulence  Mountain Waves  Volcanic Ashes






- Airport Elevation : 26 ft


ETNT - Wittmundhaven AB

CURRENT METAR :
  • 240620Z 29006KT 9999 -SHRA FEW016CB BKN035 05/04 Q1004 BLU

EXPIRED METARs :
  • 240520Z 28007KT 9999 FEW016CB SCT040 04/03 Q1004 BLU+
  • 240420Z 30007KT 9999 -SHRA SCT016 BKN030 BKN120 04/03 Q1005 BLACKBLU
  • 240320Z AUTO 22004KT //// // ////// 04/03 Q1005 ///
  • 240220Z AUTO 26007KT //// // ////// 04/02 Q1006 ///

Expired Forecast.



MET'MAP, your aeronautical weather chart ! - Copyright ORBIFLY December 2007 - Disclaimer

ORBIFLY MET'MAP TEAM :

Programming & Development : Alexandra Zaïnal
Original concept : Baudouin d'Aumeries
Technical & hardware support : Manuel Goepfert
Assistance : Marc-Olivier Méhu




SOURCES & CREDITS :

   NOAA